sensor_id;sensor_type;location;lat;lon;timestamp;temperature;humidity
27745;DHT22;61387;48.112;8.616;2023-03-20T00:00:11;5.50;99.90
27745;DHT22;61387;48.112;8.616;2023-03-20T00:02:40;5.50;99.90
27745;DHT22;61387;48.112;8.616;2023-03-20T00:05:17;5.50;99.90
27745;DHT22;61387;48.112;8.616;2023-03-20T00:10:09;5.60;99.90
27745;DHT22;61387;48.112;8.616;2023-03-20T00:12:35;5.60;99.90
27745;DHT22;61387;48.112;8.616;2023-03-20T00:15:02;5.60;99.90
27745;DHT22;61387;48.112;8.616;2023-03-20T00:17:29;5.60;99.90
27745;DHT22;61387;48.112;8.616;2023-03-20T00:22:21;5.60;99.90
27745;DHT22;61387;48.112;8.616;2023-03-20T00:24:47;5.70;99.90
27745;DHT22;61387;48.112;8.616;2023-03-20T00:27:14;5.70;99.90
27745;DHT22;61387;48.112;8.616;2023-03-20T00:32:14;5.60;99.90
27745;DHT22;61387;48.112;8.616;2023-03-20T00:34:39;5.70;99.90
27745;DHT22;61387;48.112;8.616;2023-03-20T00:37:05;5.70;99.90
27745;DHT22;61387;48.112;8.616;2023-03-20T00:39:31;5.70;99.90
27745;DHT22;61387;48.112;8.616;2023-03-20T00:41:59;5.70;99.90
27745;DHT22;61387;48.112;8.616;2023-03-20T00:44:32;5.70;99.90
27745;DHT22;61387;48.112;8.616;2023-03-20T00:47:04;5.70;99.90
27745;DHT22;61387;48.112;8.616;2023-03-20T00:49:33;5.70;99.90
27745;DHT22;61387;48.112;8.616;2023-03-20T00:51:59;5.70;99.90
27745;DHT22;61387;48.112;8.616;2023-03-20T00:54:26;5.70;99.90
27745;DHT22;61387;48.112;8.616;2023-03-20T00:57:07;5.70;99.90
27745;DHT22;61387;48.112;8.616;2023-03-20T00:59:36;5.70;99.90
27745;DHT22;61387;48.112;8.616;2023-03-20T01:02:03;5.70;99.90
27745;DHT22;61387;48.112;8.616;2023-03-20T01:04:36;5.70;99.90
27745;DHT22;61387;48.112;8.616;2023-03-20T01:07:04;5.70;99.90
27745;DHT22;61387;48.112;8.616;2023-03-20T01:09:31;5.70;99.90
27745;DHT22;61387;48.112;8.616;2023-03-20T01:11:58;5.70;99.90
27745;DHT22;61387;48.112;8.616;2023-03-20T01:14:24;5.70;99.90
27745;DHT22;61387;48.112;8.616;2023-03-20T01:16:51;5.70;99.90
27745;DHT22;61387;48.112;8.616;2023-03-20T01:19:16;5.80;99.90
27745;DHT22;61387;48.112;8.616;2023-03-20T01:24:08;5.80;99.90
27745;DHT22;61387;48.112;8.616;2023-03-20T01:26:41;5.80;99.90
27745;DHT22;61387;48.112;8.616;2023-03-20T01:29:20;5.80;99.90
27745;DHT22;61387;48.112;8.616;2023-03-20T01:34:12;5.80;99.90
27745;DHT22;61387;48.112;8.616;2023-03-20T01:36:38;5.90;99.90
27745;DHT22;61387;48.112;8.616;2023-03-20T01:39:04;5.90;99.90
27745;DHT22;61387;48.112;8.616;2023-03-20T01:41:31;5.90;99.90
27745;DHT22;61387;48.112;8.616;2023-03-20T01:46:30;6.00;99.90
27745;DHT22;61387;48.112;8.616;2023-03-20T01:49:06;6.00;99.90
27745;DHT22;61387;48.112;8.616;2023-03-20T01:51:32;6.00;99.90
27745;DHT22;61387;48.112;8.616;2023-03-20T01:54:16;6.00;99.90
27745;DHT22;61387;48.112;8.616;2023-03-20T01:59:30;6.00;99.90
27745;DHT22;61387;48.112;8.616;2023-03-20T02:01:57;6.00;99.90
27745;DHT22;61387;48.112;8.616;2023-03-20T02:04:35;6.00;99.90
27745;DHT22;61387;48.112;8.616;2023-03-20T02:07:03;6.00;99.90
27745;DHT22;61387;48.112;8.616;2023-03-20T02:09:30;6.00;99.90
27745;DHT22;61387;48.112;8.616;2023-03-20T02:11:57;6.00;99.90
27745;DHT22;61387;48.112;8.616;2023-03-20T02:14:23;6.00;99.90
27745;DHT22;61387;48.112;8.616;2023-03-20T02:34:01;6.10;99.90
27745;DHT22;61387;48.112;8.616;2023-03-20T02:44:21;6.10;99.90
27745;DHT22;61387;48.112;8.616;2023-03-20T02:49:37;6.10;99.90
27745;DHT22;61387;48.112;8.616;2023-03-20T03:02:39;6.10;99.90
27745;DHT22;61387;48.112;8.616;2023-03-20T03:05:15;6.10;99.90
27745;DHT22;61387;48.112;8.616;2023-03-20T03:07:45;6.10;99.90
27745;DHT22;61387;48.112;8.616;2023-03-20T03:10:23;6.10;99.90
27745;DHT22;61387;48.112;8.616;2023-03-20T03:12:52;6.10;99.90
27745;DHT22;61387;48.112;8.616;2023-03-20T03:15:39;6.10;99.90
27745;DHT22;61387;48.112;8.616;2023-03-20T03:18:12;6.10;99.90
27745;DHT22;61387;48.112;8.616;2023-03-20T03:20:38;6.00;99.90
27745;DHT22;61387;48.112;8.616;2023-03-20T03:23:06;6.00;99.90
27745;DHT22;61387;48.112;8.616;2023-03-20T03:25:35;6.00;99.90
27745;DHT22;61387;48.112;8.616;2023-03-20T03:30:37;5.90;99.90
27745;DHT22;61387;48.112;8.616;2023-03-20T03:33:18;5.90;99.90
27745;DHT22;61387;48.112;8.616;2023-03-20T03:35:45;5.90;99.90
27745;DHT22;61387;48.112;8.616;2023-03-20T03:44:12;5.90;99.90
27745;DHT22;61387;48.112;8.616;2023-03-20T03:46:52;6.00;99.90
27745;DHT22;61387;48.112;8.616;2023-03-20T03:49:28;6.00;99.90
27745;DHT22;61387;48.112;8.616;2023-03-20T03:52:00;6.00;99.90
27745;DHT22;61387;48.112;8.616;2023-03-20T03:54:31;6.10;99.90
27745;DHT22;61387;48.112;8.616;2023-03-20T03:56:58;6.20;99.90
27745;DHT22;61387;48.112;8.616;2023-03-20T03:59:35;6.10;99.90
27745;DHT22;61387;48.112;8.616;2023-03-20T04:02:03;6.10;99.90
27745;DHT22;61387;48.112;8.616;2023-03-20T04:04:31;6.10;99.90
27745;DHT22;61387;48.112;8.616;2023-03-20T04:09:22;6.10;99.90
27745;DHT22;61387;48.112;8.616;2023-03-20T04:11:52;6.00;99.90
27745;DHT22;61387;48.112;8.616;2023-03-20T04:14:18;6.00;99.90
27745;DHT22;61387;48.112;8.616;2023-03-20T04:16:43;6.00;99.90
27745;DHT22;61387;48.112;8.616;2023-03-20T04:19:09;6.10;99.90
27745;DHT22;61387;48.112;8.616;2023-03-20T04:21:35;6.10;99.90
27745;DHT22;61387;48.112;8.616;2023-03-20T04:24:00;6.10;99.90
27745;DHT22;61387;48.112;8.616;2023-03-20T04:28:52;6.10;99.90
27745;DHT22;61387;48.112;8.616;2023-03-20T04:31:18;6.00;99.90
27745;DHT22;61387;48.112;8.616;2023-03-20T04:33:43;6.00;99.90
27745;DHT22;61387;48.112;8.616;2023-03-20T04:36:10;6.00;99.90
27745;DHT22;61387;48.112;8.616;2023-03-20T04:38:35;6.10;99.90
27745;DHT22;61387;48.112;8.616;2023-03-20T04:41:01;6.10;99.90
27745;DHT22;61387;48.112;8.616;2023-03-20T04:43:27;6.10;99.90
27745;DHT22;61387;48.112;8.616;2023-03-20T04:45:52;6.00;99.90
27745;DHT22;61387;48.112;8.616;2023-03-20T04:50:44;6.00;99.90
27745;DHT22;61387;48.112;8.616;2023-03-20T04:53:15;6.00;99.90
27745;DHT22;61387;48.112;8.616;2023-03-20T04:55:40;6.00;99.90
27745;DHT22;61387;48.112;8.616;2023-03-20T04:58:06;5.90;99.90
27745;DHT22;61387;48.112;8.616;2023-03-20T05:00:32;5.90;99.90
27745;DHT22;61387;48.112;8.616;2023-03-20T05:02:57;6.00;99.90
27745;DHT22;61387;48.112;8.616;2023-03-20T05:10:16;6.00;99.90
27745;DHT22;61387;48.112;8.616;2023-03-20T05:12:42;6.00;99.90
27745;DHT22;61387;48.112;8.616;2023-03-20T05:15:07;6.00;99.90
27745;DHT22;61387;48.112;8.616;2023-03-20T05:17:33;6.00;99.90
27745;DHT22;61387;48.112;8.616;2023-03-20T05:19:59;6.10;99.90
27745;DHT22;61387;48.112;8.616;2023-03-20T05:24:50;6.10;99.90
27745;DHT22;61387;48.112;8.616;2023-03-20T05:27:16;6.10;99.90
27745;DHT22;61387;48.112;8.616;2023-03-20T05:32:08;6.10;99.90
27745;DHT22;61387;48.112;8.616;2023-03-20T05:36:59;6.10;99.90
27745;DHT22;61387;48.112;8.616;2023-03-20T05:41:51;6.10;99.90
27745;DHT22;61387;48.112;8.616;2023-03-20T05:44:16;6.10;99.90
27745;DHT22;61387;48.112;8.616;2023-03-20T05:49:08;6.10;99.90
27745;DHT22;61387;48.112;8.616;2023-03-20T05:51:34;6.00;99.90
27745;DHT22;61387;48.112;8.616;2023-03-20T05:53:59;6.10;99.90
27745;DHT22;61387;48.112;8.616;2023-03-20T05:56:25;6.10;99.90
27745;DHT22;61387;48.112;8.616;2023-03-20T05:58:51;6.10;99.90
27745;DHT22;61387;48.112;8.616;2023-03-20T06:01:17;6.10;99.90
27745;DHT22;61387;48.112;8.616;2023-03-20T06:03:46;6.20;99.90
27745;DHT22;61387;48.112;8.616;2023-03-20T06:06:12;6.20;99.90
27745;DHT22;61387;48.112;8.616;2023-03-20T06:11:05;6.20;99.90
27745;DHT22;61387;48.112;8.616;2023-03-20T06:13:31;6.30;99.90
27745;DHT22;61387;48.112;8.616;2023-03-20T06:15:56;6.30;99.90
27745;DHT22;61387;48.112;8.616;2023-03-20T06:18:22;6.30;99.90
27745;DHT22;61387;48.112;8.616;2023-03-20T06:20:54;6.30;99.90
27745;DHT22;61387;48.112;8.616;2023-03-20T06:23:20;6.30;99.90
27745;DHT22;61387;48.112;8.616;2023-03-20T06:25:46;6.30;99.90
27745;DHT22;61387;48.112;8.616;2023-03-20T06:28:12;6.40;99.90
27745;DHT22;61387;48.112;8.616;2023-03-20T06:30:37;6.40;99.90
27745;DHT22;61387;48.112;8.616;2023-03-20T06:33:05;6.40;99.90
27745;DHT22;61387;48.112;8.616;2023-03-20T06:37:58;6.50;99.90
27745;DHT22;61387;48.112;8.616;2023-03-20T06:40:23;6.50;99.90
27745;DHT22;61387;48.112;8.616;2023-03-20T06:45:15;6.60;99.90
27745;DHT22;61387;48.112;8.616;2023-03-20T06:47:41;6.60;99.90
27745;DHT22;61387;48.112;8.616;2023-03-20T06:50:08;6.70;99.90
27745;DHT22;61387;48.112;8.616;2023-03-20T06:52:34;6.70;99.90
27745;DHT22;61387;48.112;8.616;2023-03-20T06:55:00;6.80;99.90
27745;DHT22;61387;48.112;8.616;2023-03-20T06:59:52;7.00;99.90
27745;DHT22;61387;48.112;8.616;2023-03-20T07:04:43;7.10;99.90
27745;DHT22;61387;48.112;8.616;2023-03-20T07:07:09;7.30;99.90
27745;DHT22;61387;48.112;8.616;2023-03-20T07:12:01;7.60;99.90
27745;DHT22;61387;48.112;8.616;2023-03-20T07:14:27;7.50;99.90
27745;DHT22;61387;48.112;8.616;2023-03-20T07:16:52;7.60;99.90
27745;DHT22;61387;48.112;8.616;2023-03-20T07:19:19;7.60;99.90
27745;DHT22;61387;48.112;8.616;2023-03-20T07:24:10;7.70;99.90
27745;DHT22;61387;48.112;8.616;2023-03-20T07:26:36;7.80;99.90
27745;DHT22;61387;48.112;8.616;2023-03-20T07:31:28;7.70;99.90
27745;DHT22;61387;48.112;8.616;2023-03-20T07:33:55;7.80;99.90
27745;DHT22;61387;48.112;8.616;2023-03-20T07:36:21;7.50;99.90
27745;DHT22;61387;48.112;8.616;2023-03-20T07:38:47;7.40;99.90
27745;DHT22;61387;48.112;8.616;2023-03-20T07:41:12;7.40;99.90
27745;DHT22;61387;48.112;8.616;2023-03-20T07:43:38;7.30;99.90
27745;DHT22;61387;48.112;8.616;2023-03-20T07:46:04;7.20;99.90
27745;DHT22;61387;48.112;8.616;2023-03-20T07:50:56;7.30;99.90
27745;DHT22;61387;48.112;8.616;2023-03-20T07:53:22;7.40;99.90
27745;DHT22;61387;48.112;8.616;2023-03-20T07:55:48;7.60;99.90
27745;DHT22;61387;48.112;8.616;2023-03-20T07:58:13;7.70;99.90
27745;DHT22;61387;48.112;8.616;2023-03-20T08:00:39;7.80;99.90
27745;DHT22;61387;48.112;8.616;2023-03-20T08:03:04;7.80;99.90
27745;DHT22;61387;48.112;8.616;2023-03-20T08:07:56;7.90;99.90
27745;DHT22;61387;48.112;8.616;2023-03-20T08:10:22;7.90;99.90
27745;DHT22;61387;48.112;8.616;2023-03-20T08:12:47;7.90;99.90
27745;DHT22;61387;48.112;8.616;2023-03-20T08:15:13;8.00;99.90
27745;DHT22;61387;48.112;8.616;2023-03-20T08:17:43;8.10;99.90
27745;DHT22;61387;48.112;8.616;2023-03-20T08:20:09;8.30;99.90
27745;DHT22;61387;48.112;8.616;2023-03-20T08:25:01;8.30;99.90
27745;DHT22;61387;48.112;8.616;2023-03-20T08:27:27;8.40;99.90
27745;DHT22;61387;48.112;8.616;2023-03-20T08:29:52;8.40;99.90
27745;DHT22;61387;48.112;8.616;2023-03-20T08:32:18;8.40;99.90
27745;DHT22;61387;48.112;8.616;2023-03-20T08:34:43;8.60;99.90
27745;DHT22;61387;48.112;8.616;2023-03-20T08:37:09;8.60;99.90
27745;DHT22;61387;48.112;8.616;2023-03-20T08:39:36;8.80;99.90
27745;DHT22;61387;48.112;8.616;2023-03-20T08:42:04;8.80;99.90
27745;DHT22;61387;48.112;8.616;2023-03-20T08:44:30;8.90;99.90
27745;DHT22;61387;48.112;8.616;2023-03-20T08:49:22;9.10;99.90
27745;DHT22;61387;48.112;8.616;2023-03-20T08:51:47;9.20;99.90
27745;DHT22;61387;48.112;8.616;2023-03-20T08:54:13;9.20;99.90
27745;DHT22;61387;48.112;8.616;2023-03-20T08:56:40;9.30;99.90
27745;DHT22;61387;48.112;8.616;2023-03-20T08:59:06;9.30;99.90
27745;DHT22;61387;48.112;8.616;2023-03-20T09:01:32;9.30;99.90
27745;DHT22;61387;48.112;8.616;2023-03-20T09:03:57;9.50;99.90
27745;DHT22;61387;48.112;8.616;2023-03-20T09:06:23;9.50;99.90
27745;DHT22;61387;48.112;8.616;2023-03-20T09:08:48;9.60;99.90
27745;DHT22;61387;48.112;8.616;2023-03-20T09:11:14;9.70;99.90
27745;DHT22;61387;48.112;8.616;2023-03-20T09:13:40;9.80;99.90
27745;DHT22;61387;48.112;8.616;2023-03-20T09:16:06;9.40;99.90
27745;DHT22;61387;48.112;8.616;2023-03-20T09:18:31;9.60;99.90
27745;DHT22;61387;48.112;8.616;2023-03-20T09:20:57;9.60;99.90
27745;DHT22;61387;48.112;8.616;2023-03-20T09:23:23;9.80;99.90
27745;DHT22;61387;48.112;8.616;2023-03-20T09:25:48;9.70;99.90
27745;DHT22;61387;48.112;8.616;2023-03-20T09:28:14;9.60;99.90
27745;DHT22;61387;48.112;8.616;2023-03-20T09:33:07;9.60;99.90
27745;DHT22;61387;48.112;8.616;2023-03-20T09:35:33;9.80;99.90
27745;DHT22;61387;48.112;8.616;2023-03-20T09:37:58;10.00;99.90
27745;DHT22;61387;48.112;8.616;2023-03-20T09:40:28;9.60;99.90
27745;DHT22;61387;48.112;8.616;2023-03-20T09:49:27;9.70;99.90
27745;DHT22;61387;48.112;8.616;2023-03-20T09:51:54;9.60;99.90
27745;DHT22;61387;48.112;8.616;2023-03-20T09:56:53;9.90;99.90
27745;DHT22;61387;48.112;8.616;2023-03-20T09:59:19;10.30;99.90
27745;DHT22;61387;48.112;8.616;2023-03-20T10:01:55;10.10;99.90
27745;DHT22;61387;48.112;8.616;2023-03-20T10:04:24;10.00;99.90
27745;DHT22;61387;48.112;8.616;2023-03-20T10:06:51;9.90;99.90
27745;DHT22;61387;48.112;8.616;2023-03-20T10:09:26;10.00;99.90
27745;DHT22;61387;48.112;8.616;2023-03-20T10:12:11;10.00;99.90
27745;DHT22;61387;48.112;8.616;2023-03-20T10:15:11;10.20;99.90
27745;DHT22;61387;48.112;8.616;2023-03-20T10:17:50;10.40;99.90
27745;DHT22;61387;48.112;8.616;2023-03-20T10:20:35;10.80;99.90
27745;DHT22;61387;48.112;8.616;2023-03-20T10:23:05;11.10;99.90
27745;DHT22;61387;48.112;8.616;2023-03-20T10:25:34;11.30;99.90
27745;DHT22;61387;48.112;8.616;2023-03-20T10:28:33;10.50;99.90
27745;DHT22;61387;48.112;8.616;2023-03-20T10:31:28;10.50;99.90
27745;DHT22;61387;48.112;8.616;2023-03-20T10:36:52;11.10;99.90
27745;DHT22;61387;48.112;8.616;2023-03-20T10:42:12;11.50;99.90
27745;DHT22;61387;48.112;8.616;2023-03-20T10:44:47;11.60;99.90
27745;DHT22;61387;48.112;8.616;2023-03-20T10:47:17;11.80;99.90
27745;DHT22;61387;48.112;8.616;2023-03-20T10:49:53;11.60;99.90
27745;DHT22;61387;48.112;8.616;2023-03-20T10:52:24;11.60;99.90
27745;DHT22;61387;48.112;8.616;2023-03-20T10:55:02;11.30;99.90
27745;DHT22;61387;48.112;8.616;2023-03-20T10:57:32;11.10;99.90
27745;DHT22;61387;48.112;8.616;2023-03-20T10:59:58;10.60;99.90
27745;DHT22;61387;48.112;8.616;2023-03-20T11:02:29;10.70;99.90
27745;DHT22;61387;48.112;8.616;2023-03-20T11:04:58;10.70;99.90
27745;DHT22;61387;48.112;8.616;2023-03-20T11:07:31;10.80;99.90
27745;DHT22;61387;48.112;8.616;2023-03-20T11:10:11;11.00;99.90
27745;DHT22;61387;48.112;8.616;2023-03-20T11:12:40;11.10;99.90
27745;DHT22;61387;48.112;8.616;2023-03-20T11:15:24;11.10;99.90
27745;DHT22;61387;48.112;8.616;2023-03-20T11:20:33;10.90;99.90
27745;DHT22;61387;48.112;8.616;2023-03-20T11:23:02;11.00;99.90
27745;DHT22;61387;48.112;8.616;2023-03-20T11:25:33;11.00;99.90
27745;DHT22;61387;48.112;8.616;2023-03-20T11:28:20;10.90;99.90
27745;DHT22;61387;48.112;8.616;2023-03-20T11:30:49;11.00;99.90
27745;DHT22;61387;48.112;8.616;2023-03-20T11:33:21;11.20;99.90
27745;DHT22;61387;48.112;8.616;2023-03-20T11:35:52;11.20;99.90
27745;DHT22;61387;48.112;8.616;2023-03-20T11:38:23;11.10;99.90
27745;DHT22;61387;48.112;8.616;2023-03-20T11:40:50;11.00;99.90
27745;DHT22;61387;48.112;8.616;2023-03-20T11:43:24;11.00;99.90
27745;DHT22;61387;48.112;8.616;2023-03-20T11:45:56;11.00;99.90
27745;DHT22;61387;48.112;8.616;2023-03-20T11:48:25;10.80;99.90
27745;DHT22;61387;48.112;8.616;2023-03-20T11:51:01;10.70;99.90
27745;DHT22;61387;48.112;8.616;2023-03-20T11:53:31;10.70;99.90
27745;DHT22;61387;48.112;8.616;2023-03-20T11:58:30;10.60;99.90
27745;DHT22;61387;48.112;8.616;2023-03-20T12:00:56;10.60;99.90
27745;DHT22;61387;48.112;8.616;2023-03-20T12:06:16;10.60;99.90
27745;DHT22;61387;48.112;8.616;2023-03-20T12:08:46;10.90;99.90
27745;DHT22;61387;48.112;8.616;2023-03-20T12:13:51;11.10;99.90
27745;DHT22;61387;48.112;8.616;2023-03-20T12:16:20;11.20;99.90
27745;DHT22;61387;48.112;8.616;2023-03-20T12:19:13;11.00;99.90
27745;DHT22;61387;48.112;8.616;2023-03-20T12:21:47;11.10;99.90
27745;DHT22;61387;48.112;8.616;2023-03-20T12:24:36;11.40;99.90
27745;DHT22;61387;48.112;8.616;2023-03-20T12:27:14;11.50;99.90
27745;DHT22;61387;48.112;8.616;2023-03-20T12:29:48;11.90;99.90
27745;DHT22;61387;48.112;8.616;2023-03-20T12:32:30;11.90;99.90
27745;DHT22;61387;48.112;8.616;2023-03-20T12:35:15;12.00;99.90
27745;DHT22;61387;48.112;8.616;2023-03-20T12:37:41;12.00;99.90
27745;DHT22;61387;48.112;8.616;2023-03-20T12:40:14;12.20;99.90
27745;DHT22;61387;48.112;8.616;2023-03-20T12:45:24;12.00;99.90
27745;DHT22;61387;48.112;8.616;2023-03-20T12:48:00;11.90;99.90
27745;DHT22;61387;48.112;8.616;2023-03-20T12:50:38;11.80;99.90
27745;DHT22;61387;48.112;8.616;2023-03-20T12:53:18;11.70;99.90
27745;DHT22;61387;48.112;8.616;2023-03-20T13:06:52;13.30;99.90
27745;DHT22;61387;48.112;8.616;2023-03-20T13:14:47;12.80;99.90
27745;DHT22;61387;48.112;8.616;2023-03-20T13:20:15;13.40;99.90
27745;DHT22;61387;48.112;8.616;2023-03-20T13:28:23;13.60;99.90
27745;DHT22;61387;48.112;8.616;2023-03-20T13:34:11;13.50;99.90
27745;DHT22;61387;48.112;8.616;2023-03-20T13:39:26;13.40;99.90
27745;DHT22;61387;48.112;8.616;2023-03-20T13:41:54;13.30;99.90
27745;DHT22;61387;48.112;8.616;2023-03-20T13:44:22;13.00;99.90
27745;DHT22;61387;48.112;8.616;2023-03-20T13:46:57;13.30;99.90
27745;DHT22;61387;48.112;8.616;2023-03-20T13:49:34;13.30;99.90
27745;DHT22;61387;48.112;8.616;2023-03-20T13:52:16;13.10;99.90
27745;DHT22;61387;48.112;8.616;2023-03-20T13:55:15;13.40;99.90
27745;DHT22;61387;48.112;8.616;2023-03-20T13:57:46;13.60;99.90
27745;DHT22;61387;48.112;8.616;2023-03-20T14:05:43;13.30;99.90
27745;DHT22;61387;48.112;8.616;2023-03-20T14:13:32;13.50;99.90
27745;DHT22;61387;48.112;8.616;2023-03-20T14:16:01;13.60;99.90
27745;DHT22;61387;48.112;8.616;2023-03-20T14:18:29;13.20;99.90
27745;DHT22;61387;48.112;8.616;2023-03-20T14:20:58;13.20;99.90
27745;DHT22;61387;48.112;8.616;2023-03-20T14:23:38;12.90;99.90
27745;DHT22;61387;48.112;8.616;2023-03-20T14:26:08;12.70;99.90
27745;DHT22;61387;48.112;8.616;2023-03-20T14:28:55;12.70;99.90
27745;DHT22;61387;48.112;8.616;2023-03-20T14:36:40;12.70;99.90
27745;DHT22;61387;48.112;8.616;2023-03-20T14:39:18;12.90;99.90
27745;DHT22;61387;48.112;8.616;2023-03-20T14:47:25;13.00;99.90
27745;DHT22;61387;48.112;8.616;2023-03-20T14:50:13;13.00;99.90
27745;DHT22;61387;48.112;8.616;2023-03-20T14:52:58;12.90;99.90
27745;DHT22;61387;48.112;8.616;2023-03-20T14:57:55;12.60;99.90
27745;DHT22;61387;48.112;8.616;2023-03-20T15:00:26;12.70;99.90
27745;DHT22;61387;48.112;8.616;2023-03-20T15:03:10;12.80;99.90
27745;DHT22;61387;48.112;8.616;2023-03-20T15:05:38;12.80;99.90
27745;DHT22;61387;48.112;8.616;2023-03-20T15:10:42;12.50;99.90
27745;DHT22;61387;48.112;8.616;2023-03-20T15:13:09;12.60;99.90
27745;DHT22;61387;48.112;8.616;2023-03-20T15:15:35;12.70;99.90
27745;DHT22;61387;48.112;8.616;2023-03-20T15:18:12;12.80;99.90
27745;DHT22;61387;48.112;8.616;2023-03-20T15:20:38;12.80;99.90
27745;DHT22;61387;48.112;8.616;2023-03-20T15:23:04;12.90;99.90
27745;DHT22;61387;48.112;8.616;2023-03-20T15:25:46;12.80;99.90
27745;DHT22;61387;48.112;8.616;2023-03-20T15:28:21;12.80;99.90
27745;DHT22;61387;48.112;8.616;2023-03-20T15:30:48;12.80;99.90
27745;DHT22;61387;48.112;8.616;2023-03-20T15:33:18;12.80;99.90
27745;DHT22;61387;48.112;8.616;2023-03-20T15:35:46;13.00;99.90
27745;DHT22;61387;48.112;8.616;2023-03-20T15:38:14;13.10;99.90
27745;DHT22;61387;48.112;8.616;2023-03-20T15:43:19;13.10;99.90
27745;DHT22;61387;48.112;8.616;2023-03-20T15:45:45;13.30;99.90
27745;DHT22;61387;48.112;8.616;2023-03-20T15:48:17;13.10;99.90
27745;DHT22;61387;48.112;8.616;2023-03-20T15:50:45;13.30;99.90
27745;DHT22;61387;48.112;8.616;2023-03-20T15:53:19;13.10;99.90
27745;DHT22;61387;48.112;8.616;2023-03-20T15:55:50;13.00;99.90
27745;DHT22;61387;48.112;8.616;2023-03-20T15:58:16;13.10;99.90
27745;DHT22;61387;48.112;8.616;2023-03-20T16:00:47;13.10;99.90
27745;DHT22;61387;48.112;8.616;2023-03-20T16:03:16;12.80;99.90
27745;DHT22;61387;48.112;8.616;2023-03-20T16:05:45;12.60;99.90
27745;DHT22;61387;48.112;8.616;2023-03-20T16:08:22;11.30;99.90
27745;DHT22;61387;48.112;8.616;2023-03-20T16:10:47;12.40;99.90
27745;DHT22;61387;48.112;8.616;2023-03-20T16:13:14;12.30;99.90
27745;DHT22;61387;48.112;8.616;2023-03-20T16:15:43;12.30;99.90
27745;DHT22;61387;48.112;8.616;2023-03-20T16:18:15;12.20;99.90
27745;DHT22;61387;48.112;8.616;2023-03-20T16:20:58;12.10;99.90
27745;DHT22;61387;48.112;8.616;2023-03-20T16:23:37;12.20;99.90
27745;DHT22;61387;48.112;8.616;2023-03-20T16:26:09;12.40;99.90
27745;DHT22;61387;48.112;8.616;2023-03-20T16:28:37;12.30;99.90
27745;DHT22;61387;48.112;8.616;2023-03-20T16:34:07;12.20;99.90
27745;DHT22;61387;48.112;8.616;2023-03-20T16:36:35;11.90;99.90
27745;DHT22;61387;48.112;8.616;2023-03-20T16:41:35;11.80;99.90
27745;DHT22;61387;48.112;8.616;2023-03-20T16:44:14;11.80;99.90
27745;DHT22;61387;48.112;8.616;2023-03-20T16:52:00;11.90;99.90
27745;DHT22;61387;48.112;8.616;2023-03-20T16:54:28;11.60;99.90
27745;DHT22;61387;48.112;8.616;2023-03-20T16:56:55;11.40;99.90
27745;DHT22;61387;48.112;8.616;2023-03-20T16:59:22;11.40;99.90
27745;DHT22;61387;48.112;8.616;2023-03-20T17:01:48;11.30;99.90
27745;DHT22;61387;48.112;8.616;2023-03-20T17:04:20;11.20;99.90
27745;DHT22;61387;48.112;8.616;2023-03-20T17:06:54;11.10;99.90
27745;DHT22;61387;48.112;8.616;2023-03-20T17:09:31;10.80;99.90
27745;DHT22;61387;48.112;8.616;2023-03-20T17:12:04;10.80;99.90
27745;DHT22;61387;48.112;8.616;2023-03-20T17:14:30;10.60;99.90
27745;DHT22;61387;48.112;8.616;2023-03-20T17:19:24;10.30;99.90
27745;DHT22;61387;48.112;8.616;2023-03-20T17:21:50;10.20;99.90
27745;DHT22;61387;48.112;8.616;2023-03-20T17:24:16;10.10;99.90
27745;DHT22;61387;48.112;8.616;2023-03-20T17:26:50;9.90;99.90
27745;DHT22;61387;48.112;8.616;2023-03-20T17:29:16;9.60;99.90
27745;DHT22;61387;48.112;8.616;2023-03-20T17:31:42;10.70;99.90
27745;DHT22;61387;48.112;8.616;2023-03-20T17:34:11;9.40;99.90
27745;DHT22;61387;48.112;8.616;2023-03-20T17:36:37;9.20;99.90
27745;DHT22;61387;48.112;8.616;2023-03-20T17:43:54;9.00;99.90
27745;DHT22;61387;48.112;8.616;2023-03-20T17:46:25;9.00;99.90
27745;DHT22;61387;48.112;8.616;2023-03-20T17:48:57;9.10;99.90
27745;DHT22;61387;48.112;8.616;2023-03-20T17:51:23;9.00;99.90
27745;DHT22;61387;48.112;8.616;2023-03-20T17:56:20;9.10;99.90
27745;DHT22;61387;48.112;8.616;2023-03-20T17:58:46;9.10;99.90
27745;DHT22;61387;48.112;8.616;2023-03-20T18:01:12;9.10;99.90
27745;DHT22;61387;48.112;8.616;2023-03-20T18:03:37;9.10;99.90
27745;DHT22;61387;48.112;8.616;2023-03-20T18:06:03;9.10;99.90
27745;DHT22;61387;48.112;8.616;2023-03-20T18:08:30;8.90;99.90
27745;DHT22;61387;48.112;8.616;2023-03-20T18:10:56;8.90;99.90
27745;DHT22;61387;48.112;8.616;2023-03-20T18:13:23;8.90;99.90
27745;DHT22;61387;48.112;8.616;2023-03-20T18:15:50;8.90;99.90
27745;DHT22;61387;48.112;8.616;2023-03-20T18:18:17;8.90;99.90
27745;DHT22;61387;48.112;8.616;2023-03-20T18:20:43;8.90;99.90
27745;DHT22;61387;48.112;8.616;2023-03-20T18:23:10;8.90;99.90
27745;DHT22;61387;48.112;8.616;2023-03-20T18:25:36;8.90;99.90
27745;DHT22;61387;48.112;8.616;2023-03-20T18:28:03;8.90;99.90
27745;DHT22;61387;48.112;8.616;2023-03-20T18:30:35;8.90;99.90
27745;DHT22;61387;48.112;8.616;2023-03-20T18:33:01;9.00;99.90
27745;DHT22;61387;48.112;8.616;2023-03-20T18:35:27;9.00;99.90
27745;DHT22;61387;48.112;8.616;2023-03-20T18:37:52;9.00;99.90
27745;DHT22;61387;48.112;8.616;2023-03-20T18:40:22;8.90;99.90
27745;DHT22;61387;48.112;8.616;2023-03-20T18:42:50;8.90;99.90
27745;DHT22;61387;48.112;8.616;2023-03-20T18:45:16;8.80;99.90
27745;DHT22;61387;48.112;8.616;2023-03-20T18:47:41;8.80;99.90
27745;DHT22;61387;48.112;8.616;2023-03-20T18:50:38;8.80;99.90
27745;DHT22;61387;48.112;8.616;2023-03-20T18:53:06;8.80;99.90
27745;DHT22;61387;48.112;8.616;2023-03-20T18:55:33;8.80;99.90
27745;DHT22;61387;48.112;8.616;2023-03-20T19:00:36;8.70;99.90
27745;DHT22;61387;48.112;8.616;2023-03-20T19:03:04;8.70;99.90
27745;DHT22;61387;48.112;8.616;2023-03-20T19:05:30;8.60;99.90
27745;DHT22;61387;48.112;8.616;2023-03-20T19:07:56;8.60;99.90
27745;DHT22;61387;48.112;8.616;2023-03-20T19:10:30;8.60;99.90
27745;DHT22;61387;48.112;8.616;2023-03-20T19:12:58;8.50;99.90
27745;DHT22;61387;48.112;8.616;2023-03-20T19:15:26;8.50;99.90
27745;DHT22;61387;48.112;8.616;2023-03-20T19:17:52;8.40;99.90
27745;DHT22;61387;48.112;8.616;2023-03-20T19:20:41;8.40;99.90
27745;DHT22;61387;48.112;8.616;2023-03-20T19:23:16;8.40;99.90
27745;DHT22;61387;48.112;8.616;2023-03-20T19:25:43;8.30;99.90
27745;DHT22;61387;48.112;8.616;2023-03-20T19:30:49;8.30;99.90
27745;DHT22;61387;48.112;8.616;2023-03-20T19:33:15;8.30;99.90
27745;DHT22;61387;48.112;8.616;2023-03-20T19:35:41;8.20;99.90
27745;DHT22;61387;48.112;8.616;2023-03-20T19:38:11;8.20;99.90
27745;DHT22;61387;48.112;8.616;2023-03-20T19:40:39;8.10;99.90
27745;DHT22;61387;48.112;8.616;2023-03-20T19:43:05;8.10;99.90
27745;DHT22;61387;48.112;8.616;2023-03-20T19:45:33;8.00;99.90
27745;DHT22;61387;48.112;8.616;2023-03-20T19:47:59;8.00;99.90